createdAt,value
2018-05-29T00:01:45.794Z,26.00
2018-05-29T00:04:12.526Z,26.93
2018-05-29T00:06:40.264Z,27.47
2018-05-29T00:09:07.006Z,27.00
2018-05-29T00:11:33.750Z,27.17
2018-05-29T00:14:00.507Z,26.80
2018-05-29T00:16:27.240Z,26.53
2018-05-29T00:18:54.013Z,25.87
2018-05-29T00:21:20.765Z,25.63
2018-05-29T00:23:48.367Z,25.77
2018-05-29T00:26:15.132Z,27.57
2018-05-29T00:28:41.860Z,27.90
2018-05-29T00:31:08.696Z,26.50
2018-05-29T00:33:35.456Z,26.17
2018-05-29T00:36:02.183Z,27.90
2018-05-29T00:38:28.935Z,26.77
2018-05-29T00:40:55.676Z,26.80
2018-05-29T00:43:22.440Z,25.60
2018-05-29T00:45:49.185Z,26.80
2018-05-29T00:48:16.015Z,26.73
2018-05-29T00:50:42.743Z,27.63
2018-05-29T00:53:09.478Z,28.60
2018-05-29T00:55:37.467Z,25.30
2018-05-29T00:58:04.237Z,26.27
2018-05-29T01:00:30.983Z,25.10
2018-05-29T01:02:57.718Z,27.20
2018-05-29T01:05:24.458Z,27.40
2018-05-29T01:07:51.189Z,28.07
2018-05-29T01:10:17.966Z,26.50
2018-05-29T01:12:44.809Z,26.17
2018-05-29T01:15:11.538Z,27.93
2018-05-29T01:17:38.298Z,27.37
2018-05-29T01:20:05.496Z,27.63
2018-05-29T01:22:32.321Z,28.00
2018-05-29T01:24:59.093Z,27.80
2018-05-29T01:27:25.851Z,27.70
2018-05-29T01:29:52.603Z,27.87
2018-05-29T01:32:19.416Z,26.47
2018-05-29T01:34:46.158Z,26.80
2018-05-29T01:37:13.699Z,27.47
2018-05-29T01:39:40.427Z,28.03
2018-05-29T01:42:07.167Z,26.77
2018-05-29T01:44:34.568Z,26.57
2018-05-29T01:47:01.328Z,27.00
2018-05-29T01:49:28.063Z,25.77
2018-05-29T01:51:54.789Z,25.87
2018-05-29T01:54:21.631Z,26.40
2018-05-29T01:56:48.807Z,27.43
2018-05-29T01:59:15.588Z,26.40
2018-05-29T02:01:42.353Z,27.00
2018-05-29T02:04:09.136Z,25.50
2018-05-29T02:06:35.868Z,27.60
2018-05-29T02:09:03.765Z,27.20
2018-05-29T02:14:09.909Z,26.83
2018-05-29T02:16:36.690Z,25.97
2018-05-29T02:19:03.634Z,27.70
2018-05-29T02:21:30.898Z,27.97
2018-05-29T02:23:57.625Z,26.43
2018-05-29T02:26:24.388Z,26.50
2018-05-29T02:28:51.106Z,26.60
2018-05-29T02:31:17.895Z,26.73
2018-05-29T02:33:44.660Z,25.17
2018-05-29T02:36:11.411Z,26.53
2018-05-29T02:38:38.139Z,26.33
2018-05-29T02:41:04.896Z,26.40
2018-05-29T02:43:31.637Z,26.23
2018-05-29T02:45:58.398Z,27.50
2018-05-29T02:48:25.186Z,26.83
2018-05-29T02:50:51.915Z,28.10
2018-05-29T02:53:18.665Z,28.67
2018-05-29T02:55:45.412Z,30.90
2018-05-29T02:58:12.167Z,28.33
2018-05-29T03:00:38.888Z,27.73
2018-05-29T03:03:05.685Z,26.97
2018-05-29T03:05:32.432Z,26.93
2018-05-29T03:07:59.202Z,24.03
2018-05-29T03:10:25.952Z,25.77
2018-05-29T03:12:53.288Z,25.47
2018-05-29T03:15:20.039Z,26.23
2018-05-29T03:17:46.777Z,27.37
2018-05-29T03:20:13.567Z,27.00
2018-05-29T03:22:40.342Z,26.47
2018-05-29T03:25:07.281Z,28.03
2018-05-29T03:27:34.013Z,27.77
2018-05-29T03:30:00.763Z,26.40
2018-05-29T03:32:27.508Z,27.67
2018-05-29T03:34:54.359Z,27.47
2018-05-29T03:37:21.297Z,25.93
2018-05-29T03:39:48.067Z,25.43
2018-05-29T03:42:14.824Z,27.47
2018-05-29T03:44:41.585Z,26.10
2018-05-29T03:47:08.312Z,25.93
2018-05-29T03:49:35.048Z,26.60
2018-05-29T03:52:01.807Z,27.77
2018-05-29T03:54:28.643Z,26.40
2018-05-29T03:56:55.407Z,26.13
2018-05-29T03:59:22.147Z,24.60
2018-05-29T04:01:50.016Z,25.47
2018-05-29T04:04:16.751Z,25.33
2018-05-29T04:06:43.583Z,25.13
2018-05-29T04:09:10.314Z,26.53
2018-05-29T04:11:37.067Z,25.77
2018-05-29T04:14:03.787Z,25.33
2018-05-29T04:16:30.552Z,26.53
2018-05-29T04:18:57.287Z,24.80
2018-05-29T04:21:24.022Z,24.90
2018-05-29T04:23:52.362Z,24.17
2018-05-29T04:26:19.101Z,25.80
2018-05-29T04:28:45.875Z,25.40
2018-05-29T04:31:12.613Z,24.90
2018-05-29T04:33:39.384Z,25.03
2018-05-29T04:36:06.118Z,24.10
2018-05-29T04:38:32.887Z,24.67
2018-05-29T04:40:59.627Z,25.20
2018-05-29T04:43:26.374Z,24.80
2018-05-29T04:45:53.139Z,25.97
2018-05-29T04:48:19.880Z,24.67
2018-05-29T04:50:46.629Z,26.07
2018-05-29T04:53:13.387Z,23.87
2018-05-29T04:55:40.161Z,25.70
2018-05-29T04:58:06.892Z,24.10
2018-05-29T05:00:33.647Z,24.90
2018-05-29T05:03:00.417Z,24.40
2018-05-29T05:05:27.170Z,24.50
2018-05-29T05:07:53.927Z,25.07
2018-05-29T05:10:20.656Z,25.77
2018-05-29T05:12:47.419Z,24.10
2018-05-29T05:15:14.162Z,25.07
2018-05-29T05:17:40.902Z,24.90
2018-05-29T05:20:07.684Z,25.93
2018-05-29T05:22:34.516Z,25.77
2018-05-29T05:25:01.252Z,25.13
2018-05-29T05:27:28.021Z,24.53
2018-05-29T05:29:54.785Z,25.60
2018-05-29T05:32:21.533Z,25.20
2018-05-29T05:34:48.280Z,24.27
2018-05-29T05:37:15.084Z,24.70
2018-05-29T05:39:41.823Z,23.87
2018-05-29T05:42:08.580Z,24.00
2018-05-29T05:44:35.312Z,23.57
2018-05-29T05:47:02.386Z,23.83
2018-05-29T05:49:29.116Z,23.20
2018-05-29T05:51:55.857Z,23.27
2018-05-29T05:54:22.596Z,23.53
2018-05-29T05:56:49.344Z,22.80
2018-05-29T05:59:16.135Z,23.97
2018-05-29T06:01:42.867Z,22.97
2018-05-29T06:04:09.611Z,23.53
2018-05-29T06:06:36.331Z,22.27
2018-05-29T06:09:03.077Z,22.33
2018-05-29T06:11:29.820Z,23.33
2018-05-29T06:13:56.572Z,23.30
2018-05-29T06:16:23.344Z,23.40
2018-05-29T06:18:50.077Z,23.43
2018-05-29T06:21:16.840Z,24.57
2018-05-29T06:23:43.613Z,23.63
2018-05-29T06:26:10.343Z,22.33
2018-05-29T06:28:37.111Z,23.20
2018-05-29T06:31:03.863Z,22.77
2018-05-29T06:33:30.587Z,23.67
2018-05-29T06:35:57.391Z,21.60
2018-05-29T06:38:24.131Z,21.93
2018-05-29T06:40:50.863Z,21.67
2018-05-29T06:43:17.608Z,22.73
2018-05-29T06:45:44.391Z,22.83
2018-05-29T06:48:11.140Z,20.63
2018-05-29T06:50:37.876Z,22.60
2018-05-29T06:53:04.620Z,21.13
2018-05-29T06:55:31.353Z,19.93
2018-05-29T06:57:58.116Z,22.00
2018-05-29T07:00:24.843Z,21.47
2018-05-29T07:02:51.567Z,20.33
2018-05-29T07:05:18.320Z,22.87
2018-05-29T07:07:45.075Z,22.20
2018-05-29T07:10:11.820Z,21.83
2018-05-29T07:12:38.544Z,22.20
2018-05-29T07:15:05.256Z,20.27
2018-05-29T07:17:32.011Z,23.93
2018-05-29T07:19:58.738Z,21.80
2018-05-29T07:22:25.468Z,21.60
2018-05-29T07:24:52.207Z,20.10
2018-05-29T07:27:18.941Z,18.57
2018-05-29T07:29:45.703Z,20.57
2018-05-29T07:32:12.440Z,21.07
2018-05-29T07:34:39.209Z,18.40
2018-05-29T07:37:05.954Z,18.90
2018-05-29T07:39:32.926Z,19.87
2018-05-29T07:41:59.640Z,18.50
2018-05-29T07:44:26.382Z,19.47
2018-05-29T07:46:53.157Z,18.73
2018-05-29T07:49:19.901Z,18.63
2018-05-29T07:51:46.666Z,19.60
2018-05-29T07:54:13.434Z,19.27
2018-05-29T07:56:40.181Z,18.60
2018-05-29T07:59:06.989Z,19.30
2018-05-29T08:01:33.811Z,19.33
2018-05-29T08:04:00.795Z,18.60
2018-05-29T08:06:27.735Z,18.57
2018-05-29T08:08:54.887Z,17.83
2018-05-29T08:11:21.850Z,18.83
2018-05-29T08:13:48.719Z,19.77
2018-05-29T08:16:15.477Z,17.03
2018-05-29T08:18:42.333Z,17.80
2018-05-29T08:21:09.373Z,18.50
2018-05-29T08:23:36.181Z,16.57
2018-05-29T08:26:03.125Z,16.80
2018-05-29T08:28:31.158Z,15.90
2018-05-29T08:30:58.062Z,17.00
2018-05-29T08:33:24.897Z,17.20
2018-05-29T08:35:52.042Z,18.70
2018-05-29T08:38:18.790Z,16.60
2018-05-29T08:40:45.564Z,16.73
2018-05-29T08:43:12.313Z,17.07
2018-05-29T08:45:39.076Z,15.63
2018-05-29T08:48:06.094Z,16.67
2018-05-29T08:50:33.119Z,16.07
2018-05-29T08:52:59.904Z,16.40
2018-05-29T08:55:26.970Z,16.43
2018-05-29T08:57:53.708Z,14.73
2018-05-29T09:00:20.718Z,15.40
2018-05-29T09:02:47.730Z,17.70
2018-05-29T09:05:14.511Z,15.83
2018-05-29T09:07:41.294Z,15.37
2018-05-29T09:10:08.115Z,15.43
2018-05-29T09:12:34.877Z,15.90
2018-05-29T09:15:01.896Z,16.70
2018-05-29T09:17:30.422Z,16.67
2018-05-29T09:19:57.333Z,15.20
2018-05-29T09:22:24.354Z,14.83
2018-05-29T09:24:51.136Z,16.23
2018-05-29T09:27:17.907Z,13.73
2018-05-29T09:29:44.785Z,13.73
2018-05-29T09:32:11.816Z,15.63
2018-05-29T09:34:38.597Z,14.33
2018-05-29T09:37:05.380Z,14.90
2018-05-29T09:39:32.510Z,15.70
2018-05-29T09:41:59.559Z,15.30
2018-05-29T09:44:26.325Z,14.00
2018-05-29T09:46:53.112Z,13.30
2018-05-29T09:49:19.955Z,15.43
2018-05-29T09:51:46.720Z,15.10
2018-05-29T09:54:13.562Z,15.30
2018-05-29T09:56:40.408Z,14.97
2018-05-29T09:59:07.262Z,16.07
2018-05-29T10:01:34.070Z,14.97
2018-05-29T10:04:05.628Z,15.70
2018-05-29T10:06:32.445Z,15.00
2018-05-29T10:08:59.199Z,15.93
2018-05-29T10:11:26.003Z,15.77
2018-05-29T10:13:52.791Z,14.80
2018-05-29T10:16:19.581Z,14.90
2018-05-29T10:18:46.381Z,14.33
2018-05-29T10:21:13.188Z,15.67
2018-05-29T10:23:39.968Z,16.37
2018-05-29T10:26:06.726Z,16.10
2018-05-29T10:28:33.785Z,16.13
2018-05-29T10:31:00.618Z,15.67
2018-05-29T10:33:27.404Z,14.93
2018-05-29T10:35:54.186Z,14.53
2018-05-29T10:38:20.987Z,15.53
2018-05-29T10:40:47.821Z,14.20
2018-05-29T10:43:14.736Z,13.00
2018-05-29T10:45:41.628Z,15.60
2018-05-29T10:48:27.505Z,14.30
2018-05-29T10:50:54.314Z,13.93
2018-05-29T10:53:21.405Z,13.10
2018-05-29T10:55:48.204Z,13.50
2018-05-29T10:58:14.972Z,12.43
2018-05-29T11:00:41.751Z,13.67
2018-05-29T11:03:08.575Z,12.13
2018-05-29T11:05:35.327Z,12.33
2018-05-29T11:08:02.580Z,13.17
2018-05-29T11:10:29.345Z,11.57
2018-05-29T11:12:56.380Z,10.40
2018-05-29T11:15:23.161Z,11.87
2018-05-29T11:17:49.943Z,12.30
2018-05-29T11:20:16.728Z,11.90
2018-05-29T11:25:25.473Z,11.60
2018-05-29T11:28:44.490Z,11.17
2018-05-29T11:31:11.457Z,12.43
2018-05-29T11:33:38.315Z,10.97
2018-05-29T11:36:05.115Z,10.67
2018-05-29T11:38:32.662Z,11.47
2018-05-29T11:40:59.483Z,10.27
2018-05-29T11:43:26.467Z,11.07
2018-05-29T11:45:53.310Z,11.97
2018-05-29T11:48:20.365Z,11.97
2018-05-29T11:50:47.124Z,10.80
2018-05-29T11:53:14.265Z,11.43
2018-05-29T11:55:41.096Z,11.03
2018-05-29T11:58:07.861Z,11.77
2018-05-29T12:00:35.640Z,12.03
2018-05-29T12:03:02.500Z,10.00
2018-05-29T12:05:29.477Z,13.50
2018-05-29T12:07:56.387Z,10.93
2018-05-29T12:10:23.186Z,10.37
2018-05-29T12:12:50.144Z,10.30
2018-05-29T12:15:16.918Z,10.60
2018-05-29T12:17:43.665Z,10.23
2018-05-29T12:20:10.448Z,11.03
2018-05-29T12:22:37.453Z,10.70
2018-05-29T12:25:04.252Z,10.53
2018-05-29T12:27:31.035Z,10.83
2018-05-29T12:29:58.295Z,9.83
2018-05-29T12:32:25.060Z,10.67
2018-05-29T12:34:51.847Z,10.40
2018-05-29T12:37:18.627Z,10.03
2018-05-29T12:39:45.388Z,9.63
2018-05-29T12:42:12.571Z,10.23
2018-05-29T12:44:39.591Z,11.13
2018-05-29T12:47:06.354Z,9.43
2018-05-29T12:49:33.356Z,9.80
2018-05-29T12:52:00.155Z,11.30
2018-05-29T12:54:26.940Z,10.13
2018-05-29T12:56:53.739Z,11.07
2018-05-29T12:59:20.733Z,11.47
2018-05-29T13:01:47.508Z,10.10
2018-05-29T13:04:14.268Z,10.80
2018-05-29T13:06:41.079Z,11.60
2018-05-29T13:09:07.845Z,10.17
2018-05-29T13:11:34.600Z,10.30
2018-05-29T13:14:01.415Z,9.53
2018-05-29T13:16:28.794Z,9.93
2018-05-29T13:18:55.664Z,10.00
2018-05-29T13:21:22.690Z,10.50
2018-05-29T13:23:49.486Z,10.63
2018-05-29T13:26:16.298Z,14.53
2018-05-29T13:28:43.106Z,10.93
2018-05-29T13:31:09.882Z,10.70
2018-05-29T13:33:36.819Z,10.60
2018-05-29T13:36:03.656Z,11.10
2018-05-29T13:38:30.421Z,10.67
2018-05-29T13:40:57.444Z,10.00
2018-05-29T13:43:24.245Z,9.73
2018-05-29T13:45:51.210Z,10.87
2018-05-29T13:48:17.975Z,10.57
2018-05-29T13:50:44.732Z,11.17
2018-05-29T13:53:11.541Z,10.67
2018-05-29T13:55:38.308Z,11.57
2018-05-29T13:58:05.978Z,10.60
2018-05-29T14:00:32.968Z,10.80
2018-05-29T14:03:01.577Z,11.30
2018-05-29T14:05:29.331Z,10.20
2018-05-29T14:07:58.311Z,9.60
2018-05-29T14:10:25.299Z,11.03
2018-05-29T14:12:52.210Z,11.63
2018-05-29T14:15:20.938Z,10.70
2018-05-29T14:17:48.045Z,10.50
2018-05-29T14:20:16.835Z,9.10
2018-05-29T14:22:43.643Z,9.43
2018-05-29T14:25:10.740Z,9.50
2018-05-29T14:27:37.499Z,9.90
2018-05-29T14:30:06.059Z,9.87
2018-05-29T14:32:33.251Z,10.30
2018-05-29T14:35:00.404Z,10.43
2018-05-29T14:37:29.558Z,10.70
2018-05-29T14:39:58.006Z,10.93
2018-05-29T14:42:25.664Z,9.83
2018-05-29T14:44:52.437Z,10.87
2018-05-29T14:47:19.503Z,10.83
2018-05-29T14:49:48.359Z,11.03
2018-05-29T14:52:15.456Z,11.07
2018-05-29T14:54:43.169Z,12.00
2018-05-29T14:57:10.092Z,12.60
2018-05-29T14:59:36.904Z,11.27
2018-05-29T15:02:03.737Z,12.17
2018-05-29T15:04:31.605Z,10.43
2018-05-29T15:06:58.969Z,10.80
2018-05-29T15:09:26.907Z,10.93
2018-05-29T15:11:56.592Z,11.40
2018-05-29T15:14:23.437Z,11.50
2018-05-29T15:16:51.149Z,11.50
2018-05-29T15:19:18.598Z,11.17
2018-05-29T15:21:46.623Z,13.27
2018-05-29T15:24:14.288Z,11.93
2018-05-29T15:26:42.366Z,12.00
2018-05-29T15:29:10.225Z,13.10
2018-05-29T15:31:38.253Z,11.40
2018-05-29T15:34:05.215Z,12.80
2018-05-29T15:36:33.255Z,12.00
2018-05-29T15:39:00.870Z,12.90
2018-05-29T15:41:28.951Z,12.57
2018-05-29T15:43:56.591Z,12.20
2018-05-29T15:46:23.807Z,13.47
2018-05-29T15:48:52.291Z,12.30
2018-05-29T15:51:19.771Z,12.57
2018-05-29T15:53:47.763Z,11.83
2018-05-29T15:56:15.511Z,12.47
2018-05-29T15:58:43.013Z,12.53
2018-05-29T16:01:10.293Z,13.20
2018-05-29T16:03:37.897Z,11.53
2018-05-29T16:06:05.570Z,12.70
2018-05-29T16:08:32.550Z,12.13
2018-05-29T16:10:59.791Z,12.00
2018-05-29T16:13:27.084Z,12.10
2018-05-29T16:15:54.176Z,12.93
2018-05-29T16:18:21.633Z,12.43
2018-05-29T16:20:49.330Z,12.77
2018-05-29T16:23:16.522Z,12.90
2018-05-29T16:25:43.934Z,13.10
2018-05-29T16:28:10.805Z,13.13
2018-05-29T16:30:38.495Z,14.33
2018-05-29T16:33:05.275Z,13.90
2018-05-29T16:35:33.710Z,16.10
2018-05-29T16:38:02.023Z,19.60
2018-05-29T16:40:29.679Z,17.47
2018-05-29T16:42:57.107Z,15.43
2018-05-29T16:45:25.145Z,15.77
2018-05-29T16:47:52.929Z,15.30
2018-05-29T16:50:21.207Z,14.97
2018-05-29T16:52:48.474Z,14.60
2018-05-29T16:55:17.653Z,17.43
2018-05-29T16:57:44.668Z,14.97
2018-05-29T17:00:11.423Z,16.80
2018-05-29T17:02:38.187Z,15.27
2018-05-29T17:05:05.099Z,16.40
2018-05-29T17:07:32.435Z,16.90
2018-05-29T17:09:59.434Z,17.23
2018-05-29T17:12:26.285Z,15.23
2018-05-29T17:14:53.054Z,15.47
2018-05-29T17:17:19.855Z,14.53
2018-05-29T17:19:46.691Z,16.13
2018-05-29T17:22:13.540Z,17.93
2018-05-29T17:24:42.984Z,17.37
2018-05-29T17:27:10.647Z,16.40
2018-05-29T17:29:37.669Z,16.77
2018-05-29T17:32:04.487Z,16.27
2018-05-29T17:34:31.288Z,17.20
2018-05-29T17:36:58.078Z,16.53
2018-05-29T17:39:24.924Z,17.53
2018-05-29T17:41:51.781Z,16.40
2018-05-29T17:44:18.829Z,15.33
2018-05-29T17:46:45.568Z,15.47
2018-05-29T17:49:12.339Z,16.17
2018-05-29T17:51:39.182Z,16.33
2018-05-29T17:54:06.181Z,15.63
2018-05-29T17:56:33.036Z,15.70
2018-05-29T17:59:00.084Z,15.40
2018-05-29T18:01:26.971Z,16.07
2018-05-29T18:03:53.764Z,17.47
2018-05-29T18:06:20.764Z,18.37
2018-05-29T18:08:47.527Z,18.00
2018-05-29T18:11:14.290Z,19.73
2018-05-29T18:13:42.116Z,18.10
2018-05-29T18:16:08.954Z,17.90
2018-05-29T18:18:35.819Z,18.80
2018-05-29T18:21:02.636Z,17.30
2018-05-29T18:23:29.461Z,18.23
2018-05-29T18:25:56.322Z,17.23
2018-05-29T18:28:23.315Z,18.87
2018-05-29T18:30:50.095Z,18.90
2018-05-29T18:33:16.942Z,18.37
2018-05-29T18:35:43.748Z,18.83
2018-05-29T18:38:10.857Z,17.73
2018-05-29T18:40:37.868Z,17.97
2018-05-29T18:43:04.632Z,19.50
2018-05-29T18:45:31.540Z,18.87
2018-05-29T18:47:58.349Z,17.43
2018-05-29T18:50:25.352Z,19.43
2018-05-29T18:52:52.366Z,19.07
2018-05-29T18:55:19.129Z,18.67
2018-05-29T18:57:45.921Z,19.60
2018-05-29T19:00:12.745Z,19.97
2018-05-29T19:02:39.544Z,18.57
2018-05-29T19:05:06.576Z,19.93
2018-05-29T19:07:33.761Z,18.20
2018-05-29T19:10:00.542Z,19.43
2018-05-29T19:12:27.363Z,18.53
2018-05-29T19:14:54.163Z,17.63
2018-05-29T19:17:21.124Z,18.93
2018-05-29T19:19:47.923Z,17.97
2018-05-29T19:22:15.027Z,19.83
2018-05-29T19:24:41.859Z,20.13
2018-05-29T19:27:08.828Z,20.37
2018-05-29T19:29:35.883Z,18.70
2018-05-29T19:32:02.693Z,18.57
2018-05-29T19:34:29.535Z,18.67
2018-05-29T19:36:56.614Z,19.83
2018-05-29T19:39:23.454Z,19.87
2018-05-29T19:41:50.600Z,19.40
2018-05-29T19:44:17.498Z,19.67
2018-05-29T19:46:44.341Z,19.63
2018-05-29T19:49:11.124Z,20.60
2018-05-29T19:51:37.994Z,19.87
2018-05-29T19:54:04.846Z,20.27
2018-05-29T19:56:31.957Z,18.93
2018-05-29T19:58:58.832Z,22.30
2018-05-29T20:01:25.676Z,22.10
2018-05-29T20:03:52.532Z,21.70
2018-05-29T20:06:19.378Z,20.07
2018-05-29T20:08:46.441Z,19.17
2018-05-29T20:11:13.571Z,18.60
2018-05-29T20:13:40.418Z,17.40
2018-05-29T20:16:07.456Z,18.13
2018-05-29T20:18:34.355Z,17.60
2018-05-29T20:21:01.288Z,14.60
2018-05-29T20:23:28.209Z,14.97
2018-05-29T20:25:55.068Z,13.03
2018-05-29T20:28:21.976Z,14.27
2018-05-29T20:30:48.806Z,12.53
2018-05-29T20:33:15.747Z,13.30
2018-05-29T20:35:43.047Z,13.03
2018-05-29T20:38:10.147Z,12.90
2018-05-29T20:40:36.981Z,14.23
2018-05-29T20:43:03.825Z,13.10
2018-05-29T20:45:30.629Z,12.87
2018-05-29T20:47:57.584Z,14.30
2018-05-29T20:50:24.622Z,14.07
2018-05-29T20:52:51.636Z,13.67
2018-05-29T20:55:18.438Z,13.70
2018-05-29T20:57:45.511Z,13.50
2018-05-29T21:00:12.274Z,13.57
2018-05-29T21:02:39.380Z,13.37
2018-05-29T21:05:06.353Z,14.40
2018-05-29T21:07:33.172Z,13.43
2018-05-29T21:09:59.970Z,13.07
2018-05-29T21:12:26.766Z,13.33
2018-05-29T21:14:53.632Z,13.97
2018-05-29T21:17:20.388Z,13.17
2018-05-29T21:19:47.238Z,12.57
2018-05-29T21:22:14.070Z,13.80
2018-05-29T21:24:40.842Z,15.40
2018-05-29T21:27:07.617Z,13.50
2018-05-29T21:29:38.873Z,16.17
2018-05-29T21:32:05.987Z,16.47
2018-05-29T21:34:32.797Z,18.07
2018-05-29T21:37:00.302Z,17.43
2018-05-29T21:39:27.062Z,18.87
2018-05-29T21:41:53.856Z,19.87
2018-05-29T21:44:20.883Z,19.30
2018-05-29T21:46:47.916Z,19.07
2018-05-29T21:49:14.767Z,19.97
2018-05-29T21:51:41.504Z,21.07
2018-05-29T21:54:08.395Z,20.20
2018-05-29T21:56:35.977Z,20.20
2018-05-29T21:59:02.732Z,20.23
2018-05-29T22:01:29.824Z,18.73
2018-05-29T22:04:03.472Z,18.57
2018-05-29T22:06:30.241Z,18.83
2018-05-29T22:08:57.068Z,18.17
2018-05-29T22:11:23.865Z,17.27
2018-05-29T22:13:50.703Z,15.77
2018-05-29T22:16:17.517Z,16.20
2018-05-29T22:18:44.562Z,16.03
2018-05-29T22:21:11.357Z,21.00
2018-05-29T22:23:38.174Z,22.63
2018-05-29T22:26:05.022Z,19.60
2018-05-29T22:28:32.353Z,16.40
2018-05-29T22:30:59.155Z,18.03
2018-05-29T22:33:26.001Z,15.43
2018-05-29T22:35:52.845Z,13.80
2018-05-29T22:38:19.699Z,15.20
2018-05-29T22:40:46.502Z,15.40
2018-05-29T22:43:13.313Z,15.10
2018-05-29T22:45:40.083Z,12.57
2018-05-29T22:48:06.900Z,13.07
2018-05-29T22:50:33.725Z,11.63
2018-05-29T22:53:00.812Z,12.97
2018-05-29T22:55:27.618Z,12.43
2018-05-29T22:57:54.703Z,10.70
2018-05-29T23:00:23.107Z,11.10
2018-05-29T23:02:49.940Z,12.83
2018-05-29T23:05:17.842Z,9.33
2018-05-29T23:07:44.830Z,11.70
2018-05-29T23:10:11.790Z,9.50
2018-05-29T23:12:38.613Z,9.97
2018-05-29T23:15:05.462Z,10.13
2018-05-29T23:17:32.712Z,9.40
2018-05-29T23:19:59.994Z,9.43
2018-05-29T23:22:26.830Z,10.13
2018-05-29T23:24:54.096Z,10.03
2018-05-29T23:27:21.119Z,10.67
2018-05-29T23:29:48.150Z,14.43
2018-05-29T23:32:15.234Z,11.43
2018-05-29T23:34:42.114Z,12.13
2018-05-29T23:37:08.955Z,11.80
2018-05-29T23:39:35.803Z,12.40
2018-05-29T23:42:02.661Z,12.60
2018-05-29T23:44:32.764Z,11.50
2018-05-29T23:46:59.713Z,11.90
2018-05-29T23:49:26.566Z,13.47
2018-05-29T23:51:53.886Z,13.37
2018-05-29T23:54:20.773Z,17.17
2018-05-29T23:56:47.755Z,19.23
2018-05-29T23:59:14.689Z,17.00
